createdAt,value
2018-07-05T00:01:02.444Z,1008.35
2018-07-05T00:02:11.338Z,1008.43
2018-07-05T00:03:20.472Z,1008.43
2018-07-05T00:04:29.873Z,1008.46
2018-07-05T00:05:39.014Z,1008.45
2018-07-05T00:06:48.157Z,1008.48
2018-07-05T00:07:57.563Z,1008.45
2018-07-05T00:09:06.970Z,1008.48
2018-07-05T00:10:16.645Z,1008.44
2018-07-05T00:11:26.050Z,1008.46
2018-07-05T00:12:35.711Z,1008.43
2018-07-05T00:13:45.116Z,1008.43
2018-07-05T00:14:54.772Z,1008.41
2018-07-05T00:16:04.169Z,1008.4
2018-07-05T00:17:13.310Z,1008.39
2018-07-05T00:18:22.723Z,1008.44
2018-07-05T00:19:32.380Z,1008.42
2018-07-05T00:20:42.033Z,1008.36
2018-07-05T00:21:51.687Z,1008.39
2018-07-05T00:23:01.343Z,1008.37
2018-07-05T00:24:10.740Z,1008.36
2018-07-05T00:25:20.401Z,1008.3
2018-07-05T00:26:30.307Z,1008.31
2018-07-05T00:27:39.706Z,1008.29
2018-07-05T00:28:49.369Z,1008.29
2018-07-05T00:29:58.519Z,1008.28
2018-07-05T00:31:07.409Z,1008.25
2018-07-05T00:32:16.809Z,1008.27
2018-07-05T00:33:25.698Z,1008.27
2018-07-05T00:34:34.841Z,1008.3
2018-07-05T00:35:44.246Z,1008.27
2018-07-05T00:36:53.407Z,1008.27
2018-07-05T00:38:02.803Z,1008.3
2018-07-05T00:39:12.199Z,1008.26
2018-07-05T00:40:21.858Z,1008.29
2018-07-05T00:41:31.773Z,1008.29
2018-07-05T00:42:41.162Z,1008.25
2018-07-05T00:43:51.083Z,1008.28
2018-07-05T00:45:00.499Z,1008.28
2018-07-05T00:46:09.656Z,1008.31
2018-07-05T00:47:19.567Z,1008.3
2018-07-05T00:48:28.716Z,1008.34
2018-07-05T00:49:38.122Z,1008.32
2018-07-05T00:50:47.268Z,1008.27
2018-07-05T00:51:56.416Z,1008.3
2018-07-05T00:53:06.091Z,1008.32
2018-07-05T00:54:14.995Z,1008.35
2018-07-05T00:55:24.408Z,1008.3
2018-07-05T00:56:33.812Z,1008.28
2018-07-05T00:57:43.478Z,1008.29
2018-07-05T00:58:52.880Z,1008.26
2018-07-05T01:00:02.021Z,1008.33
2018-07-05T01:01:11.432Z,1008.33
2018-07-05T01:02:20.829Z,1008.34
2018-07-05T01:03:30.504Z,1008.34
2018-07-05T01:04:39.911Z,1008.35
2018-07-05T01:05:49.065Z,1008.34
2018-07-05T01:06:58.209Z,1008.32
2018-07-05T01:08:07.102Z,1008.36
2018-07-05T01:09:16.854Z,1008.35
2018-07-05T01:10:26.009Z,1008.32
2018-07-05T01:11:34.896Z,1008.37
2018-07-05T01:12:44.301Z,1008.34
2018-07-05T01:13:54.222Z,1008.33
2018-07-05T01:15:03.375Z,1008.38
2018-07-05T01:16:13.297Z,1008.37
2018-07-05T01:17:22.548Z,1008.4
2018-07-05T01:18:31.959Z,1008.43
2018-07-05T01:19:40.866Z,1008.4
2018-07-05T01:20:50.537Z,1008.4
2018-07-05T01:22:00.245Z,1008.39
2018-07-05T01:23:09.924Z,1008.37
2018-07-05T01:24:18.812Z,1008.38
2018-07-05T01:25:28.208Z,1008.39
2018-07-05T01:26:37.602Z,1008.43
2018-07-05T01:27:47.259Z,1008.42
2018-07-05T01:28:56.717Z,1008.39
2018-07-05T01:30:05.612Z,1008.4
2018-07-05T01:31:15.260Z,1008.38
2018-07-05T01:32:24.405Z,1008.36
2018-07-05T01:33:34.061Z,1008.39
2018-07-05T01:34:43.482Z,1008.35
2018-07-05T01:35:52.884Z,1008.31
2018-07-05T01:37:02.560Z,1008.36
2018-07-05T01:38:11.450Z,1008.33
2018-07-05T01:39:20.860Z,1008.38
2018-07-05T01:40:29.506Z,1008.38
2018-07-05T01:41:38.654Z,1008.32
2018-07-05T01:42:48.053Z,1008.34
2018-07-05T01:43:57.196Z,1008.29
2018-07-05T01:45:06.601Z,1008.24
2018-07-05T01:46:16.016Z,1008.22
2018-07-05T01:47:25.413Z,1008.22
2018-07-05T01:48:34.816Z,1008.19
2018-07-05T01:49:44.748Z,1008.26
2018-07-05T01:50:54.164Z,1008.23
2018-07-05T01:52:03.311Z,1008.26
2018-07-05T01:53:12.982Z,1008.26
2018-07-05T01:54:22.142Z,1008.25
2018-07-05T01:55:31.549Z,1008.26
2018-07-05T01:56:40.960Z,1008.27
2018-07-05T01:57:50.370Z,1008.32
2018-07-05T01:59:00.042Z,1008.31
2018-07-05T02:00:09.181Z,1008.34
2018-07-05T02:01:19.101Z,1008.31
2018-07-05T02:02:28.778Z,1008.28
2018-07-05T02:03:37.934Z,1008.33
2018-07-05T02:04:46.820Z,1008.31
2018-07-05T02:05:56.485Z,1008.31
2018-07-05T02:07:06.154Z,1008.33
2018-07-05T02:08:15.321Z,1008.32
2018-07-05T02:09:24.481Z,1008.32
2018-07-05T02:10:33.370Z,1008.31
2018-07-05T02:11:42.546Z,1008.33
2018-07-05T02:12:52.230Z,1008.31
2018-07-05T02:14:01.941Z,1008.28
2018-07-05T02:15:11.387Z,1008.28
2018-07-05T02:16:20.536Z,1008.27
2018-07-05T02:17:29.722Z,1008.3
2018-07-05T02:18:39.132Z,1008.28
2018-07-05T02:19:48.281Z,1008.32
2018-07-05T02:20:57.439Z,1008.31
2018-07-05T02:22:06.589Z,1008.33
2018-07-05T02:23:16.511Z,1008.31
2018-07-05T02:24:25.661Z,1008.32
2018-07-05T02:25:35.324Z,1008.3
2018-07-05T02:26:44.715Z,1008.35
2018-07-05T02:27:53.869Z,1008.35
2018-07-05T02:29:03.786Z,1008.36
2018-07-05T02:30:12.682Z,1008.36
2018-07-05T02:31:22.348Z,1008.28
2018-07-05T02:32:32.038Z,1008.28
2018-07-05T02:33:41.198Z,1008.27
2018-07-05T02:34:50.874Z,1008.21
2018-07-05T02:36:00.269Z,1008.22
2018-07-05T02:37:09.928Z,1008.22
2018-07-05T02:38:19.601Z,1008.23
2018-07-05T02:39:29.291Z,1008.19
2018-07-05T02:40:38.953Z,1008.22
2018-07-05T02:41:48.628Z,1008.23
2018-07-05T02:42:58.545Z,1008.2
2018-07-05T02:44:07.697Z,1008.21
2018-07-05T02:45:17.365Z,1008.18
2018-07-05T02:46:26.768Z,1008.21
2018-07-05T02:47:36.178Z,1008.2
2018-07-05T02:48:46.097Z,1008.19
2018-07-05T02:49:55.253Z,1008.15
2018-07-05T02:51:04.672Z,1008.18
2018-07-05T02:52:14.377Z,1008.18
2018-07-05T02:53:24.304Z,1008.11
2018-07-05T02:54:33.991Z,1008.06
2018-07-05T02:55:43.936Z,1008.08
2018-07-05T02:56:53.351Z,1008.04
2018-07-05T02:58:03.008Z,1008.02
2018-07-05T02:59:12.439Z,1008.01
2018-07-05T03:00:21.594Z,1007.98
2018-07-05T03:01:31.018Z,1008.02
2018-07-05T03:02:40.728Z,1008.05
2018-07-05T03:03:50.396Z,1008.07
2018-07-05T03:04:59.817Z,1008.05
2018-07-05T03:06:09.484Z,1008.06
2018-07-05T03:07:19.150Z,1008.06
2018-07-05T03:08:28.570Z,1008.03
2018-07-05T03:09:38.489Z,1008.08
2018-07-05T03:10:48.163Z,1008.07
2018-07-05T03:11:58.078Z,1008.05
2018-07-05T03:13:07.761Z,1008.06
2018-07-05T03:14:17.448Z,1008.02
2018-07-05T03:15:26.854Z,1008.03
2018-07-05T03:16:36.259Z,1007.97
2018-07-05T03:17:45.677Z,1007.95
2018-07-05T03:18:55.604Z,1007.91
2018-07-05T03:20:05.536Z,1007.9
2018-07-05T03:21:15.216Z,1007.91
2018-07-05T03:22:25.142Z,1007.91
2018-07-05T03:23:34.547Z,1007.95
2018-07-05T03:24:43.744Z,1008
2018-07-05T03:25:53.164Z,1008.01
2018-07-05T03:27:02.337Z,1007.98
2018-07-05T03:28:11.742Z,1008.03
2018-07-05T03:29:21.155Z,1008.04
2018-07-05T03:30:30.556Z,1008.03
2018-07-05T03:31:40.214Z,1008
2018-07-05T03:32:49.625Z,1008.01
2018-07-05T03:33:59.290Z,1007.99
2018-07-05T03:35:08.218Z,1007.97
2018-07-05T03:36:17.635Z,1007.93
2018-07-05T03:37:27.101Z,1007.91
2018-07-05T03:38:36.513Z,1007.92
2018-07-05T03:39:45.658Z,1007.95
2018-07-05T03:40:54.568Z,1007.92
2018-07-05T03:42:03.707Z,1007.92
2018-07-05T03:43:13.623Z,1007.96
2018-07-05T03:44:23.300Z,1008.05
2018-07-05T03:45:32.441Z,1008.05
2018-07-05T03:46:41.848Z,1008.13
2018-07-05T03:47:50.748Z,1008.16
2018-07-05T03:49:00.153Z,1008.19
2018-07-05T03:50:09.563Z,1008.2
2018-07-05T03:51:18.722Z,1008.22
2018-07-05T03:52:27.876Z,1008.26
2018-07-05T03:53:37.552Z,1008.27
2018-07-05T03:54:47.210Z,1008.29
2018-07-05T03:55:56.866Z,1008.33
2018-07-05T03:57:06.025Z,1008.33
2018-07-05T03:58:15.430Z,1008.33
2018-07-05T03:59:24.840Z,1008.34
2018-07-05T04:00:34.260Z,1008.36
2018-07-05T04:01:43.942Z,1008.39
2018-07-05T04:02:53.591Z,1008.38
2018-07-05T04:04:03.004Z,1008.35
2018-07-05T04:05:12.163Z,1008.33
2018-07-05T04:06:21.833Z,1008.27
2018-07-05T04:07:31.501Z,1008.29
2018-07-05T04:08:41.156Z,1008.24
2018-07-05T04:09:50.566Z,1008.24
2018-07-05T04:10:59.705Z,1008.23
2018-07-05T04:12:08.908Z,1008.28
2018-07-05T04:13:18.055Z,1008.26
2018-07-05T04:14:27.972Z,1008.27
2018-07-05T04:15:37.629Z,1008.27
2018-07-05T04:16:47.129Z,1008.27
2018-07-05T04:17:56.782Z,1008.3
2018-07-05T04:19:06.188Z,1008.32
2018-07-05T04:20:15.593Z,1008.33
2018-07-05T04:21:24.481Z,1008.37
2018-07-05T04:22:33.883Z,1008.33
2018-07-05T04:23:43.022Z,1008.35
2018-07-05T04:24:52.228Z,1008.3
2018-07-05T04:26:01.988Z,1008.26
2018-07-05T04:27:11.393Z,1008.25
2018-07-05T04:28:20.537Z,1008.22
2018-07-05T04:29:29.676Z,1008.2
2018-07-05T04:30:39.340Z,1008.22
2018-07-05T04:31:49.273Z,1008.22
2018-07-05T04:32:58.168Z,1008.2
2018-07-05T04:34:07.318Z,1008.23
2018-07-05T04:35:17.329Z,1008.25
2018-07-05T04:36:26.492Z,1008.28
2018-07-05T04:37:36.173Z,1008.29
2018-07-05T04:38:45.574Z,1008.3
2018-07-05T04:39:55.231Z,1008.26
2018-07-05T04:41:04.167Z,1008.3
2018-07-05T04:42:13.048Z,1008.31
2018-07-05T04:43:21.931Z,1008.33
2018-07-05T04:44:31.335Z,1008.34
2018-07-05T04:45:40.236Z,1008.35
2018-07-05T04:46:49.654Z,1008.34
2018-07-05T04:47:59.619Z,1008.35
2018-07-05T04:49:09.389Z,1008.31
2018-07-05T04:50:19.046Z,1008.28
2018-07-05T04:51:28.461Z,1008.28
2018-07-05T04:52:38.128Z,1008.3
2018-07-05T04:53:47.813Z,1008.29
2018-07-05T04:54:57.748Z,1008.29
2018-07-05T04:56:07.163Z,1008.34
2018-07-05T04:57:16.832Z,1008.34
2018-07-05T04:58:25.729Z,1008.31
2018-07-05T04:59:34.879Z,1008.34
2018-07-05T05:00:44.283Z,1008.33
2018-07-05T05:01:53.700Z,1008.35
2018-07-05T05:03:03.111Z,1008.38
2018-07-05T05:04:12.250Z,1008.41
2018-07-05T05:05:21.451Z,1008.39
2018-07-05T05:06:30.339Z,1008.44
2018-07-05T05:07:39.482Z,1008.41
2018-07-05T05:08:48.992Z,1008.44
2018-07-05T05:09:58.737Z,1008.42
2018-07-05T05:11:07.891Z,1008.41
2018-07-05T05:12:17.987Z,1008.39
2018-07-05T05:13:27.132Z,1008.4
2018-07-05T05:14:36.281Z,1008.42
2018-07-05T05:15:45.936Z,1008.47
2018-07-05T05:16:55.126Z,1008.5
2018-07-05T05:18:05.065Z,1008.48
2018-07-05T05:19:14.476Z,1008.45
2018-07-05T05:20:23.645Z,1008.49
2018-07-05T05:21:33.306Z,1008.52
2018-07-05T05:22:42.708Z,1008.53
2018-07-05T05:23:52.111Z,1008.51
2018-07-05T05:25:01.526Z,1008.48
2018-07-05T05:26:11.365Z,1008.48
2018-07-05T05:27:20.532Z,1008.52
2018-07-05T05:28:29.948Z,1008.49
2018-07-05T05:29:38.841Z,1008.44
2018-07-05T05:30:48.498Z,1008.45
2018-07-05T05:31:57.955Z,1008.45
2018-07-05T05:33:07.353Z,1008.47
2018-07-05T05:34:17.266Z,1008.47
2018-07-05T05:35:26.670Z,1008.52
2018-07-05T05:36:35.838Z,1008.53
2018-07-05T05:37:45.244Z,1008.53
2018-07-05T05:38:54.695Z,1008.52
2018-07-05T05:40:05.124Z,1008.51
2018-07-05T05:41:15.042Z,1008.48
2018-07-05T05:42:24.184Z,1008.45
2018-07-05T05:43:33.852Z,1008.42
2018-07-05T05:44:42.737Z,1008.42
2018-07-05T05:45:52.139Z,1008.39
2018-07-05T05:47:01.538Z,1008.36
2018-07-05T05:48:10.722Z,1008.4
2018-07-05T05:49:19.997Z,1008.38
2018-07-05T05:50:28.894Z,1008.37
2018-07-05T05:51:38.315Z,1008.36
2018-07-05T05:52:47.473Z,1008.39
2018-07-05T05:53:57.129Z,1008.39
2018-07-05T05:55:06.068Z,1008.4
2018-07-05T05:56:15.218Z,1008.41
2018-07-05T05:57:24.110Z,1008.43
2018-07-05T05:58:33.533Z,1008.42
2018-07-05T05:59:42.695Z,1008.44
2018-07-05T06:00:51.342Z,1008.45
2018-07-05T06:02:01.261Z,1008.45
2018-07-05T06:03:11.194Z,1008.46
2018-07-05T06:04:20.342Z,1008.49
2018-07-05T06:05:29.255Z,1008.47
2018-07-05T06:06:37.895Z,1008.48
2018-07-05T06:07:47.350Z,1008.44
2018-07-05T06:08:57.078Z,1008.47
2018-07-05T06:10:06.495Z,1008.47
2018-07-05T06:11:15.381Z,1008.47
2018-07-05T06:12:24.343Z,1008.49
2018-07-05T06:13:33.505Z,1008.48
2018-07-05T06:14:42.401Z,1008.48
2018-07-05T06:15:51.831Z,1008.5
2018-07-05T06:17:01.232Z,1008.48
2018-07-05T06:18:10.630Z,1008.48
2018-07-05T06:19:20.032Z,1008.49
2018-07-05T06:20:29.442Z,1008.48
2018-07-05T06:21:38.854Z,1008.48
2018-07-05T06:22:48.540Z,1008.5
2018-07-05T06:23:57.941Z,1008.55
2018-07-05T06:25:07.875Z,1008.55
2018-07-05T06:26:17.025Z,1008.57
2018-07-05T06:27:26.431Z,1008.58
2018-07-05T06:28:35.587Z,1008.64
2018-07-05T06:29:44.996Z,1008.66
2018-07-05T06:30:54.695Z,1008.64
2018-07-05T06:32:03.607Z,1008.64
2018-07-05T06:33:12.768Z,1008.66
2018-07-05T06:34:22.195Z,1008.63
2018-07-05T06:35:31.356Z,1008.65
2018-07-05T06:36:40.778Z,1008.62
2018-07-05T06:37:50.454Z,1008.63
2018-07-05T06:38:59.869Z,1008.59
2018-07-05T06:40:09.295Z,1008.58
2018-07-05T06:41:18.972Z,1008.63
2018-07-05T06:42:28.125Z,1008.65
2018-07-05T06:43:37.294Z,1008.62
2018-07-05T06:44:46.704Z,1008.62
2018-07-05T06:45:55.859Z,1008.6
2018-07-05T06:47:05.041Z,1008.61
2018-07-05T06:48:14.708Z,1008.63
2018-07-05T06:49:24.677Z,1008.63
2018-07-05T06:50:34.704Z,1008.62
2018-07-05T06:51:44.377Z,1008.59
2018-07-05T06:52:54.057Z,1008.59
2018-07-05T06:54:03.881Z,1008.58
2018-07-05T06:55:13.803Z,1008.59
2018-07-05T06:56:23.209Z,1008.59
2018-07-05T06:57:32.618Z,1008.59
2018-07-05T06:58:42.028Z,1008.63
2018-07-05T06:59:50.920Z,1008.62
2018-07-05T07:00:59.817Z,1008.6
2018-07-05T07:02:09.259Z,1008.61
2018-07-05T07:03:19.203Z,1008.62
2018-07-05T07:04:29.122Z,1008.64
2018-07-05T07:05:38.572Z,1008.61
2018-07-05T07:06:47.470Z,1008.59
2018-07-05T07:07:56.632Z,1008.64
2018-07-05T07:09:06.885Z,1008.61
2018-07-05T07:10:16.308Z,1008.6
2018-07-05T07:11:26.226Z,1008.63
2018-07-05T07:12:35.632Z,1008.67
2018-07-05T07:13:45.304Z,1008.66
2018-07-05T07:14:54.895Z,1008.65
2018-07-05T07:16:04.326Z,1008.64
2018-07-05T07:17:13.998Z,1008.7
2018-07-05T07:18:23.678Z,1008.69
2018-07-05T07:19:34.038Z,1008.75
2018-07-05T07:20:43.450Z,1008.76
2018-07-05T07:21:52.885Z,1008.75
2018-07-05T07:23:02.578Z,1008.78
2018-07-05T07:24:12.253Z,1008.78
2018-07-05T07:25:22.170Z,1008.81
2018-07-05T07:26:31.579Z,1008.82
2018-07-05T07:27:40.735Z,1008.85
2018-07-05T07:28:50.400Z,1008.89
2018-07-05T07:29:59.297Z,1008.91
2018-07-05T07:31:08.961Z,1008.92
2018-07-05T07:32:18.556Z,1008.93
2018-07-05T07:33:28.242Z,1008.96
2018-07-05T07:34:37.393Z,1009
2018-07-05T07:35:47.047Z,1008.96
2018-07-05T07:36:56.719Z,1009
2018-07-05T07:38:06.381Z,1008.98
2018-07-05T07:39:15.793Z,1008.96
2018-07-05T07:40:25.196Z,1008.95
2018-07-05T07:41:34.347Z,1008.9
2018-07-05T07:42:44.050Z,1008.95
2018-07-05T07:43:53.471Z,1008.93
2018-07-05T07:45:02.619Z,1008.97
2018-07-05T07:46:11.796Z,1008.97
2018-07-05T07:47:21.227Z,1008.99
2018-07-05T07:48:30.957Z,1008.95
2018-07-05T07:49:40.363Z,1009.01
2018-07-05T07:50:49.781Z,1008.98
2018-07-05T07:51:58.695Z,1009
2018-07-05T07:53:07.921Z,1008.98
2018-07-05T07:54:17.342Z,1009.01
2018-07-05T07:55:27.012Z,1009.02
2018-07-05T07:56:36.167Z,1009
2018-07-05T07:57:45.577Z,1009.01
2018-07-05T07:58:54.988Z,1008.99
2018-07-05T08:00:04.165Z,1009
2018-07-05T08:01:13.841Z,1009.01
2018-07-05T08:02:23.241Z,1009.01
2018-07-05T08:03:32.466Z,1009
2018-07-05T08:04:41.886Z,1009.01
2018-07-05T08:05:51.549Z,1009
2018-07-05T08:07:00.454Z,1009.05
2018-07-05T08:08:10.195Z,1009.05
2018-07-05T08:09:20.172Z,1009.07
2018-07-05T08:10:30.099Z,1009.05
2018-07-05T08:11:39.309Z,1009.03
2018-07-05T08:12:48.498Z,1009.03
2018-07-05T08:13:57.653Z,1009.03
2018-07-05T08:15:06.566Z,1009.04
2018-07-05T08:16:16.495Z,1009.04
2018-07-05T08:17:25.411Z,1008.99
2018-07-05T08:18:34.832Z,1008.98
2018-07-05T08:19:44.269Z,1008.99
2018-07-05T08:20:53.428Z,1008.99
2018-07-05T08:22:02.869Z,1008.99
2018-07-05T08:23:12.332Z,1008.97
2018-07-05T08:24:21.174Z,1008.95
2018-07-05T08:25:30.585Z,1008.91
2018-07-05T08:26:39.493Z,1008.93
2018-07-05T08:27:49.188Z,1008.94
2018-07-05T08:28:58.859Z,1008.91
2018-07-05T08:30:08.261Z,1008.9
2018-07-05T08:31:17.731Z,1008.92
2018-07-05T08:32:27.246Z,1008.93
2018-07-05T08:33:36.668Z,1008.9
2018-07-05T08:34:45.830Z,1008.9
2018-07-05T08:35:55.501Z,1008.92
2018-07-05T08:37:04.663Z,1008.9
2018-07-05T08:38:13.860Z,1008.88
2018-07-05T08:39:23.269Z,1008.89
2018-07-05T08:40:32.731Z,1008.86
2018-07-05T08:41:41.644Z,1008.84
2018-07-05T08:42:51.065Z,1008.86
2018-07-05T08:44:00.742Z,1008.81
2018-07-05T08:45:10.148Z,1008.84
2018-07-05T08:46:19.842Z,1008.83
2018-07-05T08:47:29.267Z,1008.84
2018-07-05T08:48:38.791Z,1008.85
2018-07-05T08:49:48.741Z,1008.86
2018-07-05T08:50:58.437Z,1008.84
2018-07-05T08:52:07.753Z,1008.85
2018-07-05T08:53:16.662Z,1008.83
2018-07-05T08:54:26.138Z,1008.86
2018-07-05T08:55:35.844Z,1008.8
2018-07-05T08:56:45.517Z,1008.84
2018-07-05T08:57:54.945Z,1008.8
2018-07-05T08:59:04.879Z,1008.82
2018-07-05T09:00:14.799Z,1008.85
2018-07-05T09:01:24.221Z,1008.82
2018-07-05T09:02:33.908Z,1008.82
2018-07-05T09:03:43.598Z,1008.85
2018-07-05T09:04:53.273Z,1008.86
2018-07-05T09:06:02.442Z,1008.89
2018-07-05T09:07:12.133Z,1008.85
2018-07-05T09:08:21.911Z,1008.87
2018-07-05T09:09:31.140Z,1008.83
2018-07-05T09:10:40.310Z,1008.84
2018-07-05T09:11:49.797Z,1008.83
2018-07-05T09:12:59.829Z,1008.82
2018-07-05T09:14:09.253Z,1008.82
2018-07-05T09:15:18.401Z,1008.82
2018-07-05T09:16:27.813Z,1008.78
2018-07-05T09:17:37.648Z,1008.76
2018-07-05T09:18:47.107Z,1008.81
2018-07-05T09:19:56.950Z,1008.75
2018-07-05T09:21:06.625Z,1008.79
2018-07-05T09:22:16.047Z,1008.79
2018-07-05T09:23:25.361Z,1008.75
2018-07-05T09:24:36.285Z,1008.75
2018-07-05T09:25:45.704Z,1008.79
2018-07-05T09:26:55.372Z,1008.79
2018-07-05T09:28:04.526Z,1008.76
2018-07-05T09:29:13.696Z,1008.72
2018-07-05T09:30:22.961Z,1008.7
2018-07-05T09:31:32.700Z,1008.73
2018-07-05T09:32:41.605Z,1008.69
2018-07-05T09:33:51.019Z,1008.65
2018-07-05T09:35:00.177Z,1008.65
2018-07-05T09:36:09.335Z,1008.64
2018-07-05T09:37:18.520Z,1008.64
2018-07-05T09:38:28.534Z,1008.67
2018-07-05T09:39:37.520Z,1008.66
2018-07-05T09:40:46.681Z,1008.68
2018-07-05T09:41:56.342Z,1008.7
2018-07-05T09:43:05.769Z,1008.68
2018-07-05T09:44:15.438Z,1008.67
2018-07-05T09:45:24.608Z,1008.65
2018-07-05T09:46:34.054Z,1008.63
2018-07-05T09:47:43.217Z,1008.67
2018-07-05T09:48:53.147Z,1008.68
2018-07-05T09:50:02.314Z,1008.7
2018-07-05T09:51:11.987Z,1008.67
2018-07-05T09:52:21.919Z,1008.65
2018-07-05T09:53:32.173Z,1008.66
2018-07-05T09:54:41.327Z,1008.66
2018-07-05T09:55:50.553Z,1008.64
2018-07-05T09:56:59.521Z,1008.65
2018-07-05T09:58:09.539Z,1008.62
2018-07-05T09:59:18.696Z,1008.65
2018-07-05T10:00:28.103Z,1008.66
2018-07-05T10:01:37.805Z,1008.66
2018-07-05T10:02:46.444Z,1008.66
2018-07-05T10:03:55.848Z,1008.64
2018-07-05T10:05:04.998Z,1008.64
2018-07-05T10:06:14.405Z,1008.64
2018-07-05T10:07:23.823Z,1008.62
2018-07-05T10:08:33.237Z,1008.64
2018-07-05T10:09:42.640Z,1008.67
2018-07-05T10:10:52.567Z,1008.72
2018-07-05T10:12:02.016Z,1008.66
2018-07-05T10:13:11.798Z,1008.76
2018-07-05T10:14:22.783Z,1008.7
2018-07-05T10:15:32.469Z,1008.76
2018-07-05T10:16:42.141Z,1008.75
2018-07-05T10:17:51.604Z,1008.75
2018-07-05T10:19:01.020Z,1008.74
2018-07-05T10:20:10.172Z,1008.71
2018-07-05T10:21:19.847Z,1008.72
2018-07-05T10:22:29.015Z,1008.75
2018-07-05T10:23:38.440Z,1008.72
2018-07-05T10:24:48.106Z,1008.7
2018-07-05T10:25:57.970Z,1008.76
2018-07-05T10:27:07.214Z,1008.77
2018-07-05T10:28:16.933Z,1008.73
2018-07-05T10:29:26.097Z,1008.75
2018-07-05T10:30:35.544Z,1008.73
2018-07-05T10:31:45.491Z,1008.78
2018-07-05T10:32:55.190Z,1008.77
2018-07-05T10:34:04.452Z,1008.75
2018-07-05T10:35:13.348Z,1008.75
2018-07-05T10:36:22.797Z,1008.75
2018-07-05T10:37:32.488Z,1008.73
2018-07-05T10:38:41.895Z,1008.71
2018-07-05T10:39:51.070Z,1008.7
2018-07-05T10:41:00.747Z,1008.74
2018-07-05T10:42:09.911Z,1008.72
2018-07-05T10:43:19.593Z,1008.73
2018-07-05T10:44:29.267Z,1008.72
2018-07-05T10:45:38.449Z,1008.75
2018-07-05T10:46:48.118Z,1008.7
2018-07-05T10:47:57.788Z,1008.73
2018-07-05T10:49:07.462Z,1008.69
2018-07-05T10:50:16.875Z,1008.75
2018-07-05T10:51:26.551Z,1008.7
2018-07-05T10:52:36.015Z,1008.74
2018-07-05T10:53:45.460Z,1008.75
2018-07-05T10:54:54.618Z,1008.74
2018-07-05T10:56:03.526Z,1008.74
2018-07-05T10:57:12.942Z,1008.76
2018-07-05T10:58:22.103Z,1008.75
2018-07-05T10:59:32.031Z,1008.75
2018-07-05T11:00:41.201Z,1008.76
2018-07-05T11:01:50.879Z,1008.79
2018-07-05T11:03:00.302Z,1008.8
2018-07-05T11:04:09.465Z,1008.76
2018-07-05T11:05:18.651Z,1008.82
2018-07-05T11:06:28.078Z,1008.82
2018-07-05T11:07:37.497Z,1008.79
2018-07-05T11:08:47.242Z,1008.79
2018-07-05T11:09:56.661Z,1008.76
2018-07-05T11:11:06.077Z,1008.74
2018-07-05T11:12:15.751Z,1008.69
2018-07-05T11:13:25.192Z,1008.73
2018-07-05T11:14:34.734Z,1008.74
2018-07-05T11:15:44.310Z,1008.7
2018-07-05T11:16:53.979Z,1008.7
2018-07-05T11:18:03.188Z,1008.7
2018-07-05T11:19:12.617Z,1008.68
2018-07-05T11:20:22.056Z,1008.66
2018-07-05T11:21:31.732Z,1008.67
2018-07-05T11:22:40.906Z,1008.65
2018-07-05T11:23:50.427Z,1008.64
2018-07-05T11:24:59.577Z,1008.66
2018-07-05T11:26:08.742Z,1008.66
2018-07-05T11:27:17.649Z,1008.7
2018-07-05T11:28:27.117Z,1008.69
2018-07-05T11:29:36.790Z,1008.67
2018-07-05T11:30:46.207Z,1008.67
2018-07-05T11:31:55.365Z,1008.67
2018-07-05T11:33:05.038Z,1008.67
2018-07-05T11:34:14.717Z,1008.69
2018-07-05T11:35:24.136Z,1008.67
2018-07-05T11:36:33.567Z,1008.66
2018-07-05T11:37:43.252Z,1008.64
2018-07-05T11:38:52.658Z,1008.53
2018-07-05T11:40:02.593Z,1008.59
2018-07-05T11:41:12.024Z,1008.56
2018-07-05T11:42:21.465Z,1008.54
2018-07-05T11:43:30.754Z,1008.51
2018-07-05T11:44:40.439Z,1008.51
2018-07-05T11:45:49.867Z,1008.52
2018-07-05T11:46:59.294Z,1008.52
2018-07-05T11:48:08.478Z,1008.46
2018-07-05T11:49:17.647Z,1008.48
2018-07-05T11:50:26.838Z,1008.47
2018-07-05T11:51:36.252Z,1008.5
2018-07-05T11:52:45.933Z,1008.48
2018-07-05T11:53:54.856Z,1008.5
2018-07-05T11:55:04.012Z,1008.49
2018-07-05T11:56:13.691Z,1008.43
2018-07-05T11:57:23.633Z,1008.42
2018-07-05T11:58:32.827Z,1008.47
2018-07-05T11:59:43.087Z,1008.51
2018-07-05T12:00:52.510Z,1008.51
2018-07-05T12:02:01.727Z,1008.5
2018-07-05T12:03:11.095Z,1008.44
2018-07-05T12:04:20.568Z,1008.43
2018-07-05T12:05:30.073Z,1008.43
2018-07-05T12:06:40.016Z,1008.46
2018-07-05T12:07:49.721Z,1008.46
2018-07-05T12:08:59.418Z,1008.53
2018-07-05T12:10:08.847Z,1008.5
2018-07-05T12:11:18.276Z,1008.47
2018-07-05T12:12:27.727Z,1008.49
2018-07-05T12:13:36.899Z,1008.47
2018-07-05T12:14:46.300Z,1008.45
2018-07-05T12:15:55.450Z,1008.45
2018-07-05T12:17:04.335Z,1008.5
2018-07-05T12:18:14.007Z,1008.43
2018-07-05T12:19:23.330Z,1008.49
2018-07-05T12:20:32.996Z,1008.46
2018-07-05T12:21:42.934Z,1008.4
2018-07-05T12:22:52.110Z,1008.48
2018-07-05T12:24:01.342Z,1008.43
2018-07-05T12:25:11.140Z,1008.51
2018-07-05T12:26:20.813Z,1008.44
2018-07-05T12:27:29.727Z,1008.46
2018-07-05T12:28:39.139Z,1008.44
2018-07-05T12:29:48.340Z,1008.5
2018-07-05T12:30:57.795Z,1008.51
2018-07-05T12:32:06.944Z,1008.53
2018-07-05T12:33:16.349Z,1008.51
2018-07-05T12:34:26.277Z,1008.61
2018-07-05T12:35:35.737Z,1008.54
2018-07-05T12:36:45.465Z,1008.64
2018-07-05T12:37:54.644Z,1008.64
2018-07-05T12:39:04.339Z,1008.61
2018-07-05T12:40:13.825Z,1008.55
2018-07-05T12:41:23.965Z,1008.7
2018-07-05T12:42:33.376Z,1008.64
2018-07-05T12:43:43.055Z,1008.56
2018-07-05T12:44:52.717Z,1008.59
2018-07-05T12:46:02.423Z,1008.5
2018-07-05T12:47:12.134Z,1008.58
2018-07-05T12:48:21.932Z,1008.64
2018-07-05T12:49:31.352Z,1008.62
2018-07-05T12:50:40.780Z,1008.63
2018-07-05T12:51:50.251Z,1008.63
2018-07-05T12:53:00.297Z,1008.62
2018-07-05T12:54:09.450Z,1008.59
2018-07-05T12:55:18.863Z,1008.61
2018-07-05T12:56:28.277Z,1008.62
2018-07-05T12:57:38.267Z,1008.57
2018-07-05T12:58:47.427Z,1008.63
2018-07-05T12:59:56.907Z,1008.55
2018-07-05T13:01:06.328Z,1008.57
2018-07-05T13:02:14.983Z,1008.59
2018-07-05T13:03:24.391Z,1008.63
2018-07-05T13:04:33.295Z,1008.64
2018-07-05T13:05:42.992Z,1008.64
2018-07-05T13:06:52.142Z,1008.58
2018-07-05T13:08:01.556Z,1008.58
2018-07-05T13:09:10.960Z,1008.57
2018-07-05T13:10:20.376Z,1008.61
2018-07-05T13:11:29.799Z,1008.67
2018-07-05T13:12:38.980Z,1008.67
2018-07-05T13:13:48.489Z,1008.71
2018-07-05T13:14:57.387Z,1008.67
2018-07-05T13:16:06.794Z,1008.74
2018-07-05T13:17:16.469Z,1008.73
2018-07-05T13:18:26.143Z,1008.68
2018-07-05T13:19:35.558Z,1008.72
2018-07-05T13:20:44.965Z,1008.73
2018-07-05T13:21:54.376Z,1008.73
2018-07-05T13:23:04.301Z,1008.69
2018-07-05T13:24:13.975Z,1008.66
2018-07-05T13:25:23.636Z,1008.63
2018-07-05T13:26:33.072Z,1008.65
2018-07-05T13:27:42.515Z,1008.68
2018-07-05T13:28:52.195Z,1008.67
2018-07-05T13:30:01.671Z,1008.68
2018-07-05T13:31:11.178Z,1008.71
2018-07-05T13:32:20.083Z,1008.74
2018-07-05T13:33:29.026Z,1008.74
2018-07-05T13:34:38.687Z,1008.68
2018-07-05T13:35:47.875Z,1008.69
2018-07-05T13:36:57.286Z,1008.77
2018-07-05T13:38:06.713Z,1008.72
2018-07-05T13:39:15.859Z,1008.76
2018-07-05T13:40:25.521Z,1008.82
2018-07-05T13:41:34.944Z,1008.84
2018-07-05T13:42:44.633Z,1008.81
2018-07-05T13:43:54.074Z,1008.83
2018-07-05T13:45:03.257Z,1008.84
2018-07-05T13:46:12.942Z,1008.79
2018-07-05T13:47:22.614Z,1008.8
2018-07-05T13:48:31.786Z,1008.84
2018-07-05T13:49:41.474Z,1008.82
2018-07-05T13:50:50.640Z,1008.86
2018-07-05T13:52:00.065Z,1008.81
2018-07-05T13:53:09.484Z,1008.87
2018-07-05T13:54:18.649Z,1008.85
2018-07-05T13:55:27.813Z,1008.85
2018-07-05T13:56:37.224Z,1008.83
2018-07-05T13:57:47.036Z,1008.87
2018-07-05T13:58:56.471Z,1008.9
2018-07-05T14:00:06.593Z,1008.86
2018-07-05T14:01:16.002Z,1008.87
2018-07-05T14:02:25.162Z,1008.89
2018-07-05T14:03:34.120Z,1008.9